sensor_id;sensor_type;location;lat;lon;timestamp;P1;durP1;ratioP1;P2;durP2;ratioP2
74616;SDS011;63123;50.906;4.198;2023-02-28T00:01:26;3.38;;;2.70;;
74616;SDS011;63123;50.906;4.198;2023-02-28T00:03:52;3.30;;;3.00;;
74616;SDS011;63123;50.906;4.198;2023-02-28T00:06:17;2.88;;;2.67;;
74616;SDS011;63123;50.906;4.198;2023-02-28T00:08:43;4.07;;;2.92;;
74616;SDS011;63123;50.906;4.198;2023-02-28T00:11:10;2.97;;;2.67;;
74616;SDS011;63123;50.906;4.198;2023-02-28T00:13:39;4.13;;;3.20;;
74616;SDS011;63123;50.906;4.198;2023-02-28T00:16:10;2.90;;;2.60;;
74616;SDS011;63123;50.906;4.198;2023-02-28T00:18:38;2.90;;;2.70;;
74616;SDS011;63123;50.906;4.198;2023-02-28T00:21:04;3.10;;;2.80;;
74616;SDS011;63123;50.906;4.198;2023-02-28T00:23:30;3.63;;;2.70;;
74616;SDS011;63123;50.906;4.198;2023-02-28T00:25:56;2.90;;;2.58;;
74616;SDS011;63123;50.906;4.198;2023-02-28T00:28:21;3.20;;;2.90;;
74616;SDS011;63123;50.906;4.198;2023-02-28T00:30:48;3.83;;;3.30;;
74616;SDS011;63123;50.906;4.198;2023-02-28T00:33:13;3.55;;;2.75;;
74616;SDS011;63123;50.906;4.198;2023-02-28T00:35:39;3.67;;;2.80;;
74616;SDS011;63123;50.906;4.198;2023-02-28T00:38:05;3.03;;;2.78;;
74616;SDS011;63123;50.906;4.198;2023-02-28T00:40:31;3.08;;;2.88;;
74616;SDS011;63123;50.906;4.198;2023-02-28T00:42:56;3.30;;;2.60;;
74616;SDS011;63123;50.906;4.198;2023-02-28T00:45:22;3.60;;;2.80;;
74616;SDS011;63123;50.906;4.198;2023-02-28T00:47:48;3.67;;;2.95;;
74616;SDS011;63123;50.906;4.198;2023-02-28T00:50:16;2.72;;;2.53;;
74616;SDS011;63123;50.906;4.198;2023-02-28T00:52:42;3.10;;;2.65;;
74616;SDS011;63123;50.906;4.198;2023-02-28T00:55:08;3.13;;;2.83;;
74616;SDS011;63123;50.906;4.198;2023-02-28T00:57:34;2.88;;;2.63;;
74616;SDS011;63123;50.906;4.198;2023-02-28T01:00:00;3.47;;;3.13;;
74616;SDS011;63123;50.906;4.198;2023-02-28T01:02:26;2.90;;;2.60;;
74616;SDS011;63123;50.906;4.198;2023-02-28T01:04:52;3.47;;;3.00;;
74616;SDS011;63123;50.906;4.198;2023-02-28T01:07:17;3.03;;;2.60;;
74616;SDS011;63123;50.906;4.198;2023-02-28T01:09:43;3.13;;;2.83;;
74616;SDS011;63123;50.906;4.198;2023-02-28T01:12:09;3.60;;;2.92;;
74616;SDS011;63123;50.906;4.198;2023-02-28T01:14:35;2.95;;;2.72;;
74616;SDS011;63123;50.906;4.198;2023-02-28T01:17:01;3.78;;;2.83;;
74616;SDS011;63123;50.906;4.198;2023-02-28T01:19:26;3.17;;;2.45;;
74616;SDS011;63123;50.906;4.198;2023-02-28T01:21:52;2.55;;;2.13;;
74616;SDS011;63123;50.906;4.198;2023-02-28T01:24:18;2.90;;;2.63;;
74616;SDS011;63123;50.906;4.198;2023-02-28T01:26:44;2.92;;;2.55;;
74616;SDS011;63123;50.906;4.198;2023-02-28T01:29:09;2.50;;;2.30;;
74616;SDS011;63123;50.906;4.198;2023-02-28T01:31:35;3.72;;;3.35;;
74616;SDS011;63123;50.906;4.198;2023-02-28T01:34:01;2.58;;;2.30;;
74616;SDS011;63123;50.906;4.198;2023-02-28T01:36:27;3.03;;;2.72;;
74616;SDS011;63123;50.906;4.198;2023-02-28T01:38:52;3.33;;;2.85;;
74616;SDS011;63123;50.906;4.198;2023-02-28T01:41:20;4.03;;;3.15;;
74616;SDS011;63123;50.906;4.198;2023-02-28T01:46:21;3.88;;;2.75;;
74616;SDS011;63123;50.906;4.198;2023-02-28T01:48:54;2.78;;;2.58;;
74616;SDS011;63123;50.906;4.198;2023-02-28T01:51:40;3.60;;;2.63;;
74616;SDS011;63123;50.906;4.198;2023-02-28T01:54:16;2.88;;;2.65;;
74616;SDS011;63123;50.906;4.198;2023-02-28T01:56:51;3.13;;;2.90;;
74616;SDS011;63123;50.906;4.198;2023-02-28T01:59:22;2.85;;;2.50;;
74616;SDS011;63123;50.906;4.198;2023-02-28T02:01:52;2.92;;;2.72;;
74616;SDS011;63123;50.906;4.198;2023-02-28T02:04:18;2.88;;;2.58;;
74616;SDS011;63123;50.906;4.198;2023-02-28T02:06:46;3.33;;;3.03;;
74616;SDS011;63123;50.906;4.198;2023-02-28T02:09:13;3.05;;;2.85;;
74616;SDS011;63123;50.906;4.198;2023-02-28T02:11:39;3.05;;;2.75;;
74616;SDS011;63123;50.906;4.198;2023-02-28T02:14:53;3.40;;;3.10;;
74616;SDS011;63123;50.906;4.198;2023-02-28T02:22:27;2.85;;;2.65;;
74616;SDS011;63123;50.906;4.198;2023-02-28T02:27:55;3.65;;;3.35;;
74616;SDS011;63123;50.906;4.198;2023-02-28T02:33:45;2.83;;;2.63;;
74616;SDS011;63123;50.906;4.198;2023-02-28T02:36:33;3.13;;;2.83;;
74616;SDS011;63123;50.906;4.198;2023-02-28T02:39:47;3.08;;;2.83;;
74616;SDS011;63123;50.906;4.198;2023-02-28T02:41:58;2.78;;;2.50;;
74616;SDS011;63123;50.906;4.198;2023-02-28T02:44:29;2.67;;;2.47;;
74616;SDS011;63123;50.906;4.198;2023-02-28T02:47:03;3.15;;;2.88;;
74616;SDS011;63123;50.906;4.198;2023-02-28T02:49:35;3.20;;;2.90;;
74616;SDS011;63123;50.906;4.198;2023-02-28T02:52:04;3.20;;;2.97;;
74616;SDS011;63123;50.906;4.198;2023-02-28T02:54:33;3.53;;;3.22;;
74616;SDS011;63123;50.906;4.198;2023-02-28T02:57:03;3.08;;;2.80;;
74616;SDS011;63123;50.906;4.198;2023-02-28T02:59:36;3.05;;;2.78;;
74616;SDS011;63123;50.906;4.198;2023-02-28T03:02:06;3.22;;;2.92;;
74616;SDS011;63123;50.906;4.198;2023-02-28T03:04:43;3.67;;;2.95;;
74616;SDS011;63123;50.906;4.198;2023-02-28T03:07:25;2.78;;;2.58;;
74616;SDS011;63123;50.906;4.198;2023-02-28T03:09:52;3.10;;;2.90;;
74616;SDS011;63123;50.906;4.198;2023-02-28T03:12:19;2.88;;;2.65;;
74616;SDS011;63123;50.906;4.198;2023-02-28T03:17:43;3.50;;;3.20;;
74616;SDS011;63123;50.906;4.198;2023-02-28T03:20:33;2.90;;;2.70;;
74616;SDS011;63123;50.906;4.198;2023-02-28T03:23:28;3.33;;;3.13;;
74616;SDS011;63123;50.906;4.198;2023-02-28T03:26:07;3.38;;;3.08;;
74616;SDS011;63123;50.906;4.198;2023-02-28T03:31:52;3.38;;;3.08;;
74616;SDS011;63123;50.906;4.198;2023-02-28T03:34:32;3.35;;;3.05;;
74616;SDS011;63123;50.906;4.198;2023-02-28T03:37:05;3.22;;;2.92;;
74616;SDS011;63123;50.906;4.198;2023-02-28T03:39:37;3.45;;;3.20;;
74616;SDS011;63123;50.906;4.198;2023-02-28T03:42:20;2.97;;;2.78;;
74616;SDS011;63123;50.906;4.198;2023-02-28T03:44:51;3.17;;;2.90;;
74616;SDS011;63123;50.906;4.198;2023-02-28T03:47:29;3.90;;;3.60;;
74616;SDS011;63123;50.906;4.198;2023-02-28T03:50:05;3.90;;;3.40;;
74616;SDS011;63123;50.906;4.198;2023-02-28T03:52:36;3.33;;;3.13;;
74616;SDS011;63123;50.906;4.198;2023-02-28T03:55:09;3.58;;;3.22;;
74616;SDS011;63123;50.906;4.198;2023-02-28T04:00:48;3.83;;;3.55;;
74616;SDS011;63123;50.906;4.198;2023-02-28T04:03:20;3.80;;;3.45;;
74616;SDS011;63123;50.906;4.198;2023-02-28T04:05:46;3.13;;;2.92;;
74616;SDS011;63123;50.906;4.198;2023-02-28T04:08:17;3.15;;;2.83;;
74616;SDS011;63123;50.906;4.198;2023-02-28T04:10:44;3.83;;;3.53;;
74616;SDS011;63123;50.906;4.198;2023-02-28T04:13:15;4.10;;;3.70;;
74616;SDS011;63123;50.906;4.198;2023-02-28T04:15:41;3.13;;;2.85;;
74616;SDS011;63123;50.906;4.198;2023-02-28T04:18:07;3.40;;;3.10;;
74616;SDS011;63123;50.906;4.198;2023-02-28T04:20:33;3.42;;;3.13;;
74616;SDS011;63123;50.906;4.198;2023-02-28T04:22:58;3.35;;;3.05;;
74616;SDS011;63123;50.906;4.198;2023-02-28T04:25:24;4.05;;;3.75;;
74616;SDS011;63123;50.906;4.198;2023-02-28T04:27:49;3.88;;;3.53;;
74616;SDS011;63123;50.906;4.198;2023-02-28T04:30:15;3.30;;;3.10;;
74616;SDS011;63123;50.906;4.198;2023-02-28T04:32:41;3.65;;;3.17;;
74616;SDS011;63123;50.906;4.198;2023-02-28T04:35:06;3.65;;;3.35;;
74616;SDS011;63123;50.906;4.198;2023-02-28T04:37:32;3.33;;;3.10;;
74616;SDS011;63123;50.906;4.198;2023-02-28T04:39:59;3.22;;;2.92;;
74616;SDS011;63123;50.906;4.198;2023-02-28T04:42:26;3.30;;;3.10;;
74616;SDS011;63123;50.906;4.198;2023-02-28T04:44:51;3.17;;;2.75;;
74616;SDS011;63123;50.906;4.198;2023-02-28T04:47:17;3.70;;;3.38;;
74616;SDS011;63123;50.906;4.198;2023-02-28T04:49:43;3.13;;;2.78;;
74616;SDS011;63123;50.906;4.198;2023-02-28T04:52:08;3.65;;;3.40;;
74616;SDS011;63123;50.906;4.198;2023-02-28T04:54:35;3.65;;;3.35;;
74616;SDS011;63123;50.906;4.198;2023-02-28T04:57:00;3.72;;;3.33;;
74616;SDS011;63123;50.906;4.198;2023-02-28T04:59:26;3.72;;;3.33;;
74616;SDS011;63123;50.906;4.198;2023-02-28T05:01:52;3.03;;;2.83;;
74616;SDS011;63123;50.906;4.198;2023-02-28T05:04:18;3.83;;;3.53;;
74616;SDS011;63123;50.906;4.198;2023-02-28T05:06:43;3.40;;;3.10;;
74616;SDS011;63123;50.906;4.198;2023-02-28T05:09:09;3.35;;;3.05;;
74616;SDS011;63123;50.906;4.198;2023-02-28T05:11:37;3.53;;;3.22;;
74616;SDS011;63123;50.906;4.198;2023-02-28T05:14:05;3.30;;;3.00;;
74616;SDS011;63123;50.906;4.198;2023-02-28T05:16:34;4.07;;;3.78;;
74616;SDS011;63123;50.906;4.198;2023-02-28T05:19:00;3.72;;;3.42;;
74616;SDS011;63123;50.906;4.198;2023-02-28T05:24:32;3.70;;;3.03;;
74616;SDS011;63123;50.906;4.198;2023-02-28T05:26:51;3.38;;;3.08;;
74616;SDS011;63123;50.906;4.198;2023-02-28T05:29:18;3.60;;;3.30;;
74616;SDS011;63123;50.906;4.198;2023-02-28T05:31:44;3.30;;;3.10;;
74616;SDS011;63123;50.906;4.198;2023-02-28T05:34:10;3.80;;;3.20;;
74616;SDS011;63123;50.906;4.198;2023-02-28T05:36:37;3.70;;;3.38;;
74616;SDS011;63123;50.906;4.198;2023-02-28T05:39:05;3.53;;;3.22;;
74616;SDS011;63123;50.906;4.198;2023-02-28T05:41:31;3.58;;;3.28;;
74616;SDS011;63123;50.906;4.198;2023-02-28T05:43:57;3.50;;;3.28;;
74616;SDS011;63123;50.906;4.198;2023-02-28T05:46:24;3.55;;;3.25;;
74616;SDS011;63123;50.906;4.198;2023-02-28T05:48:50;3.42;;;3.13;;
74616;SDS011;63123;50.906;4.198;2023-02-28T05:51:16;3.00;;;2.72;;
74616;SDS011;63123;50.906;4.198;2023-02-28T05:53:42;3.30;;;3.00;;
74616;SDS011;63123;50.906;4.198;2023-02-28T05:56:08;3.20;;;3.00;;
74616;SDS011;63123;50.906;4.198;2023-02-28T05:58:34;3.30;;;3.10;;
74616;SDS011;63123;50.906;4.198;2023-02-28T06:01:00;3.40;;;2.72;;
74616;SDS011;63123;50.906;4.198;2023-02-28T06:03:26;3.20;;;3.00;;
74616;SDS011;63123;50.906;4.198;2023-02-28T06:05:52;3.70;;;3.40;;
74616;SDS011;63123;50.906;4.198;2023-02-28T06:08:18;3.58;;;3.28;;
74616;SDS011;63123;50.906;4.198;2023-02-28T06:10:43;2.90;;;2.67;;
74616;SDS011;63123;50.906;4.198;2023-02-28T06:13:10;3.50;;;3.20;;
74616;SDS011;63123;50.906;4.198;2023-02-28T06:15:37;3.10;;;2.80;;
74616;SDS011;63123;50.906;4.198;2023-02-28T06:18:03;3.20;;;3.00;;
74616;SDS011;63123;50.906;4.198;2023-02-28T06:20:29;3.30;;;3.00;;
74616;SDS011;63123;50.906;4.198;2023-02-28T06:22:55;3.20;;;2.90;;
74616;SDS011;63123;50.906;4.198;2023-02-28T06:25:23;3.78;;;3.47;;
74616;SDS011;63123;50.906;4.198;2023-02-28T06:27:49;3.72;;;3.42;;
74616;SDS011;63123;50.906;4.198;2023-02-28T06:30:15;2.88;;;2.67;;
74616;SDS011;63123;50.906;4.198;2023-02-28T06:32:40;3.28;;;3.03;;
74616;SDS011;63123;50.906;4.198;2023-02-28T06:35:06;3.60;;;3.25;;
74616;SDS011;63123;50.906;4.198;2023-02-28T06:37:32;3.40;;;3.10;;
74616;SDS011;63123;50.906;4.198;2023-02-28T06:39:58;3.47;;;3.17;;
74616;SDS011;63123;50.906;4.198;2023-02-28T06:42:24;2.55;;;2.35;;
74616;SDS011;63123;50.906;4.198;2023-02-28T06:44:54;3.40;;;3.15;;
74616;SDS011;63123;50.906;4.198;2023-02-28T06:47:20;3.05;;;2.83;;
74616;SDS011;63123;50.906;4.198;2023-02-28T06:49:46;2.70;;;2.50;;
74616;SDS011;63123;50.906;4.198;2023-02-28T06:52:12;3.78;;;3.47;;
74616;SDS011;63123;50.906;4.198;2023-02-28T06:54:37;3.20;;;2.90;;
74616;SDS011;63123;50.906;4.198;2023-02-28T06:57:03;3.47;;;3.15;;
74616;SDS011;63123;50.906;4.198;2023-02-28T06:59:29;3.15;;;2.85;;
74616;SDS011;63123;50.906;4.198;2023-02-28T07:01:55;2.97;;;2.78;;
74616;SDS011;63123;50.906;4.198;2023-02-28T07:04:21;3.17;;;2.88;;
74616;SDS011;63123;50.906;4.198;2023-02-28T07:06:47;3.38;;;3.13;;
74616;SDS011;63123;50.906;4.198;2023-02-28T07:09:12;3.47;;;3.10;;
74616;SDS011;63123;50.906;4.198;2023-02-28T07:11:38;2.90;;;2.70;;
74616;SDS011;63123;50.906;4.198;2023-02-28T07:14:05;3.13;;;2.92;;
74616;SDS011;63123;50.906;4.198;2023-02-28T07:16:31;3.15;;;2.85;;
74616;SDS011;63123;50.906;4.198;2023-02-28T07:18:57;3.22;;;2.92;;
74616;SDS011;63123;50.906;4.198;2023-02-28T07:21:23;3.47;;;3.10;;
74616;SDS011;63123;50.906;4.198;2023-02-28T07:23:49;3.45;;;3.15;;
74616;SDS011;63123;50.906;4.198;2023-02-28T07:26:16;3.72;;;3.40;;
74616;SDS011;63123;50.906;4.198;2023-02-28T07:28:44;3.30;;;3.00;;
74616;SDS011;63123;50.906;4.198;2023-02-28T07:31:11;3.30;;;3.00;;
74616;SDS011;63123;50.906;4.198;2023-02-28T07:33:38;3.85;;;3.30;;
74616;SDS011;63123;50.906;4.198;2023-02-28T07:36:05;3.10;;;2.90;;
74616;SDS011;63123;50.906;4.198;2023-02-28T07:38:33;3.22;;;3.03;;
74616;SDS011;63123;50.906;4.198;2023-02-28T07:41:00;3.75;;;3.45;;
74616;SDS011;63123;50.906;4.198;2023-02-28T07:43:29;3.33;;;3.03;;
74616;SDS011;63123;50.906;4.198;2023-02-28T07:46:01;3.85;;;3.22;;
74616;SDS011;63123;50.906;4.198;2023-02-28T07:48:27;2.90;;;2.70;;
74616;SDS011;63123;50.906;4.198;2023-02-28T07:50:56;2.95;;;2.63;;
74616;SDS011;63123;50.906;4.198;2023-02-28T07:53:23;4.60;;;3.08;;
74616;SDS011;63123;50.906;4.198;2023-02-28T07:55:48;2.67;;;2.47;;
74616;SDS011;63123;50.906;4.198;2023-02-28T07:58:14;3.00;;;2.80;;
74616;SDS011;63123;50.906;4.198;2023-02-28T08:00:39;3.03;;;2.80;;
74616;SDS011;63123;50.906;4.198;2023-02-28T08:03:05;3.33;;;2.55;;
74616;SDS011;63123;50.906;4.198;2023-02-28T08:05:31;3.35;;;2.92;;
74616;SDS011;63123;50.906;4.198;2023-02-28T08:07:56;3.15;;;2.80;;
74616;SDS011;63123;50.906;4.198;2023-02-28T08:10:23;3.10;;;2.80;;
74616;SDS011;63123;50.906;4.198;2023-02-28T08:12:49;2.58;;;2.38;;
74616;SDS011;63123;50.906;4.198;2023-02-28T08:15:14;2.85;;;2.58;;
74616;SDS011;63123;50.906;4.198;2023-02-28T08:17:40;2.70;;;2.50;;
74616;SDS011;63123;50.906;4.198;2023-02-28T08:20:06;2.80;;;2.60;;
74616;SDS011;63123;50.906;4.198;2023-02-28T08:22:32;2.47;;;2.30;;
74616;SDS011;63123;50.906;4.198;2023-02-28T08:24:58;2.75;;;2.55;;
74616;SDS011;63123;50.906;4.198;2023-02-28T08:27:23;2.70;;;2.50;;
74616;SDS011;63123;50.906;4.198;2023-02-28T08:29:49;2.92;;;2.72;;
74616;SDS011;63123;50.906;4.198;2023-02-28T08:32:14;2.75;;;2.55;;
74616;SDS011;63123;50.906;4.198;2023-02-28T08:34:40;3.30;;;3.00;;
74616;SDS011;63123;50.906;4.198;2023-02-28T08:37:05;2.75;;;2.55;;
74616;SDS011;63123;50.906;4.198;2023-02-28T08:39:33;2.88;;;2.67;;
74616;SDS011;63123;50.906;4.198;2023-02-28T08:42:00;2.20;;;2.00;;
74616;SDS011;63123;50.906;4.198;2023-02-28T08:44:26;2.38;;;2.17;;
74616;SDS011;63123;50.906;4.198;2023-02-28T08:46:52;2.72;;;2.50;;
74616;SDS011;63123;50.906;4.198;2023-02-28T08:49:17;2.70;;;2.50;;
74616;SDS011;63123;50.906;4.198;2023-02-28T08:51:43;2.35;;;2.25;;
74616;SDS011;63123;50.906;4.198;2023-02-28T08:54:09;2.65;;;2.45;;
74616;SDS011;63123;50.906;4.198;2023-02-28T08:56:37;2.22;;;1.92;;
74616;SDS011;63123;50.906;4.198;2023-02-28T08:59:03;2.35;;;2.15;;
74616;SDS011;63123;50.906;4.198;2023-02-28T09:01:28;2.42;;;2.05;;
74616;SDS011;63123;50.906;4.198;2023-02-28T09:03:55;2.20;;;2.00;;
74616;SDS011;63123;50.906;4.198;2023-02-28T09:06:22;2.42;;;2.22;;
74616;SDS011;63123;50.906;4.198;2023-02-28T09:08:50;2.80;;;2.35;;
74616;SDS011;63123;50.906;4.198;2023-02-28T09:11:16;2.20;;;2.10;;
74616;SDS011;63123;50.906;4.198;2023-02-28T09:13:44;2.35;;;2.15;;
74616;SDS011;63123;50.906;4.198;2023-02-28T09:16:11;2.40;;;2.20;;
74616;SDS011;63123;50.906;4.198;2023-02-28T09:18:38;2.53;;;2.33;;
74616;SDS011;63123;50.906;4.198;2023-02-28T09:21:08;2.55;;;2.35;;
74616;SDS011;63123;50.906;4.198;2023-02-28T09:23:36;2.40;;;2.20;;
74616;SDS011;63123;50.906;4.198;2023-02-28T09:26:05;2.63;;;2.08;;
74616;SDS011;63123;50.906;4.198;2023-02-28T09:28:31;2.15;;;1.88;;
74616;SDS011;63123;50.906;4.198;2023-02-28T09:30:57;1.85;;;1.75;;
74616;SDS011;63123;50.906;4.198;2023-02-28T09:33:24;2.88;;;2.28;;
74616;SDS011;63123;50.906;4.198;2023-02-28T09:35:50;2.58;;;1.90;;
74616;SDS011;63123;50.906;4.198;2023-02-28T09:38:22;2.30;;;2.10;;
74616;SDS011;63123;50.906;4.198;2023-02-28T09:40:51;2.47;;;2.28;;
74616;SDS011;63123;50.906;4.198;2023-02-28T09:43:21;2.10;;;1.90;;
74616;SDS011;63123;50.906;4.198;2023-02-28T09:45:51;3.10;;;2.20;;
74616;SDS011;63123;50.906;4.198;2023-02-28T09:48:28;2.30;;;1.80;;
74616;SDS011;63123;50.906;4.198;2023-02-28T09:51:05;2.20;;;2.00;;
74616;SDS011;63123;50.906;4.198;2023-02-28T09:53:51;2.05;;;1.77;;
74616;SDS011;63123;50.906;4.198;2023-02-28T09:56:27;2.10;;;1.95;;
74616;SDS011;63123;50.906;4.198;2023-02-28T09:59:20;2.38;;;1.70;;
74616;SDS011;63123;50.906;4.198;2023-02-28T10:04:52;1.63;;;1.52;;
74616;SDS011;63123;50.906;4.198;2023-02-28T10:12:55;2.30;;;2.10;;
74616;SDS011;63123;50.906;4.198;2023-02-28T10:15:24;2.10;;;1.90;;
74616;SDS011;63123;50.906;4.198;2023-02-28T10:17:54;1.90;;;1.80;;
74616;SDS011;63123;50.906;4.198;2023-02-28T10:20:24;1.98;;;1.77;;
74616;SDS011;63123;50.906;4.198;2023-02-28T10:22:58;1.73;;;1.63;;
74616;SDS011;63123;50.906;4.198;2023-02-28T10:25:32;2.20;;;1.80;;
74616;SDS011;63123;50.906;4.198;2023-02-28T10:28:10;1.92;;;1.58;;
74616;SDS011;63123;50.906;4.198;2023-02-28T10:30:39;1.60;;;1.50;;
74616;SDS011;63123;50.906;4.198;2023-02-28T10:33:14;1.98;;;1.70;;
74616;SDS011;63123;50.906;4.198;2023-02-28T10:35:45;1.80;;;1.63;;
74616;SDS011;63123;50.906;4.198;2023-02-28T10:38:14;1.98;;;1.40;;
74616;SDS011;63123;50.906;4.198;2023-02-28T10:40:42;2.08;;;1.83;;
74616;SDS011;63123;50.906;4.198;2023-02-28T10:43:18;1.65;;;1.30;;
74616;SDS011;63123;50.906;4.198;2023-02-28T10:45:52;1.55;;;1.40;;
74616;SDS011;63123;50.906;4.198;2023-02-28T10:48:57;1.50;;;1.40;;
74616;SDS011;63123;50.906;4.198;2023-02-28T10:51:33;1.70;;;1.40;;
74616;SDS011;63123;50.906;4.198;2023-02-28T10:54:03;1.35;;;1.25;;
74616;SDS011;63123;50.906;4.198;2023-02-28T10:56:30;1.40;;;1.23;;
74616;SDS011;63123;50.906;4.198;2023-02-28T10:59:01;1.55;;;1.45;;
74616;SDS011;63123;50.906;4.198;2023-02-28T11:03:57;1.85;;;1.60;;
74616;SDS011;63123;50.906;4.198;2023-02-28T11:06:25;1.52;;;1.40;;
74616;SDS011;63123;50.906;4.198;2023-02-28T11:08:56;1.65;;;1.30;;
74616;SDS011;63123;50.906;4.198;2023-02-28T11:11:28;1.67;;;1.40;;
74616;SDS011;63123;50.906;4.198;2023-02-28T11:14:06;2.65;;;1.63;;
74616;SDS011;63123;50.906;4.198;2023-02-28T11:16:51;1.30;;;1.20;;
74616;SDS011;63123;50.906;4.198;2023-02-28T11:19:22;1.48;;;1.30;;
74616;SDS011;63123;50.906;4.198;2023-02-28T11:21:57;1.73;;;1.52;;
74616;SDS011;63123;50.906;4.198;2023-02-28T11:24:26;1.83;;;1.58;;
74616;SDS011;63123;50.906;4.198;2023-02-28T11:26:55;2.58;;;1.60;;
74616;SDS011;63123;50.906;4.198;2023-02-28T11:29:22;1.77;;;1.67;;
74616;SDS011;63123;50.906;4.198;2023-02-28T11:34:44;1.70;;;1.30;;
74616;SDS011;63123;50.906;4.198;2023-02-28T11:37:27;1.73;;;1.38;;
74616;SDS011;63123;50.906;4.198;2023-02-28T11:39:53;1.90;;;1.30;;
74616;SDS011;63123;50.906;4.198;2023-02-28T11:45:31;1.63;;;1.52;;
74616;SDS011;63123;50.906;4.198;2023-02-28T11:48:09;1.30;;;1.20;;
74616;SDS011;63123;50.906;4.198;2023-02-28T11:53:14;1.65;;;1.30;;
74616;SDS011;63123;50.906;4.198;2023-02-28T11:55:49;1.23;;;1.13;;
74616;SDS011;63123;50.906;4.198;2023-02-28T12:01:15;1.80;;;1.35;;
74616;SDS011;63123;50.906;4.198;2023-02-28T12:06:38;1.33;;;1.23;;
74616;SDS011;63123;50.906;4.198;2023-02-28T12:12:26;1.55;;;1.38;;
74616;SDS011;63123;50.906;4.198;2023-02-28T12:18:18;1.90;;;1.80;;
74616;SDS011;63123;50.906;4.198;2023-02-28T12:20:53;1.92;;;1.75;;
74616;SDS011;63123;50.906;4.198;2023-02-28T12:24:08;1.45;;;1.35;;
74616;SDS011;63123;50.906;4.198;2023-02-28T12:29:30;1.40;;;1.30;;
74616;SDS011;63123;50.906;4.198;2023-02-28T12:31:59;1.58;;;1.38;;
74616;SDS011;63123;50.906;4.198;2023-02-28T12:34:32;3.28;;;1.50;;
74616;SDS011;63123;50.906;4.198;2023-02-28T12:37:03;2.38;;;1.20;;
74616;SDS011;63123;50.906;4.198;2023-02-28T12:39:36;2.28;;;1.60;;
74616;SDS011;63123;50.906;4.198;2023-02-28T12:42:13;1.40;;;1.30;;
74616;SDS011;63123;50.906;4.198;2023-02-28T12:44:49;1.67;;;1.42;;
74616;SDS011;63123;50.906;4.198;2023-02-28T12:47:25;1.73;;;1.50;;
74616;SDS011;63123;50.906;4.198;2023-02-28T12:50:24;2.38;;;1.55;;
74616;SDS011;63123;50.906;4.198;2023-02-28T12:52:52;1.92;;;1.65;;
74616;SDS011;63123;50.906;4.198;2023-02-28T12:55:35;2.08;;;1.23;;
74616;SDS011;63123;50.906;4.198;2023-02-28T12:58:17;1.25;;;1.13;;
74616;SDS011;63123;50.906;4.198;2023-02-28T13:09:41;1.45;;;1.35;;
74616;SDS011;63123;50.906;4.198;2023-02-28T13:12:20;1.67;;;1.42;;
74616;SDS011;63123;50.906;4.198;2023-02-28T13:14:48;2.25;;;1.50;;
74616;SDS011;63123;50.906;4.198;2023-02-28T13:17:20;2.33;;;1.50;;
74616;SDS011;63123;50.906;4.198;2023-02-28T13:22:22;1.50;;;1.40;;
74616;SDS011;63123;50.906;4.198;2023-02-28T13:27:47;1.77;;;1.30;;
74616;SDS011;63123;50.906;4.198;2023-02-28T13:35:45;1.60;;;1.30;;
74616;SDS011;63123;50.906;4.198;2023-02-28T13:38:21;1.45;;;1.17;;
74616;SDS011;63123;50.906;4.198;2023-02-28T13:40:49;1.38;;;1.27;;
74616;SDS011;63123;50.906;4.198;2023-02-28T13:43:16;1.60;;;1.50;;
74616;SDS011;63123;50.906;4.198;2023-02-28T13:46:03;1.40;;;1.25;;
74616;SDS011;63123;50.906;4.198;2023-02-28T13:48:34;2.38;;;1.40;;
74616;SDS011;63123;50.906;4.198;2023-02-28T13:51:00;1.50;;;1.40;;
74616;SDS011;63123;50.906;4.198;2023-02-28T13:54:07;2.17;;;1.73;;
74616;SDS011;63123;50.906;4.198;2023-02-28T13:56:56;1.63;;;1.42;;
74616;SDS011;63123;50.906;4.198;2023-02-28T13:59:31;2.10;;;1.80;;
74616;SDS011;63123;50.906;4.198;2023-02-28T14:02:33;1.77;;;1.60;;
74616;SDS011;63123;50.906;4.198;2023-02-28T14:05:17;1.98;;;1.23;;
74616;SDS011;63123;50.906;4.198;2023-02-28T14:07:50;2.25;;;1.90;;
74616;SDS011;63123;50.906;4.198;2023-02-28T14:10:24;2.30;;;1.60;;
74616;SDS011;63123;50.906;4.198;2023-02-28T14:20:47;1.75;;;1.30;;
74616;SDS011;63123;50.906;4.198;2023-02-28T14:32:01;1.65;;;1.38;;
74616;SDS011;63123;50.906;4.198;2023-02-28T14:37:45;1.50;;;1.40;;
74616;SDS011;63123;50.906;4.198;2023-02-28T14:40:32;3.78;;;1.50;;
74616;SDS011;63123;50.906;4.198;2023-02-28T14:42:59;1.83;;;1.60;;
74616;SDS011;63123;50.906;4.198;2023-02-28T14:45:27;3.70;;;1.85;;
74616;SDS011;63123;50.906;4.198;2023-02-28T14:47:55;1.50;;;1.40;;
74616;SDS011;63123;50.906;4.198;2023-02-28T14:50:27;1.75;;;1.65;;
74616;SDS011;63123;50.906;4.198;2023-02-28T14:52:56;1.40;;;1.30;;
74616;SDS011;63123;50.906;4.198;2023-02-28T14:55:24;2.00;;;1.70;;
74616;SDS011;63123;50.906;4.198;2023-02-28T14:57:54;1.80;;;1.55;;
74616;SDS011;63123;50.906;4.198;2023-02-28T15:00:26;2.17;;;1.50;;
74616;SDS011;63123;50.906;4.198;2023-02-28T15:02:54;1.73;;;1.63;;
74616;SDS011;63123;50.906;4.198;2023-02-28T15:05:25;2.30;;;2.00;;
74616;SDS011;63123;50.906;4.198;2023-02-28T15:08:01;1.60;;;1.40;;
74616;SDS011;63123;50.906;4.198;2023-02-28T15:10:29;1.40;;;1.27;;
74616;SDS011;63123;50.906;4.198;2023-02-28T15:12:57;1.98;;;1.77;;
74616;SDS011;63123;50.906;4.198;2023-02-28T15:15:26;1.50;;;1.40;;
74616;SDS011;63123;50.906;4.198;2023-02-28T15:18:07;2.90;;;1.85;;
74616;SDS011;63123;50.906;4.198;2023-02-28T15:20:57;1.60;;;1.50;;
74616;SDS011;63123;50.906;4.198;2023-02-28T15:23:34;1.95;;;1.77;;
74616;SDS011;63123;50.906;4.198;2023-02-28T15:26:01;2.17;;;1.92;;
74616;SDS011;63123;50.906;4.198;2023-02-28T15:28:28;2.00;;;1.73;;
74616;SDS011;63123;50.906;4.198;2023-02-28T15:30:55;1.80;;;1.70;;
74616;SDS011;63123;50.906;4.198;2023-02-28T15:33:24;1.83;;;1.63;;
74616;SDS011;63123;50.906;4.198;2023-02-28T15:36:03;2.83;;;1.75;;
74616;SDS011;63123;50.906;4.198;2023-02-28T15:38:39;1.70;;;1.60;;
74616;SDS011;63123;50.906;4.198;2023-02-28T15:41:21;2.40;;;1.73;;
74616;SDS011;63123;50.906;4.198;2023-02-28T15:44:14;2.05;;;1.85;;
74616;SDS011;63123;50.906;4.198;2023-02-28T15:47:26;2.30;;;1.50;;
74616;SDS011;63123;50.906;4.198;2023-02-28T15:49:51;2.28;;;1.67;;
74616;SDS011;63123;50.906;4.198;2023-02-28T15:52:21;2.00;;;1.80;;
74616;SDS011;63123;50.906;4.198;2023-02-28T15:57:45;1.60;;;1.50;;
74616;SDS011;63123;50.906;4.198;2023-02-28T16:00:16;2.72;;;1.70;;
74616;SDS011;63123;50.906;4.198;2023-02-28T16:02:45;1.80;;;1.70;;
74616;SDS011;63123;50.906;4.198;2023-02-28T16:07:37;1.73;;;1.63;;
74616;SDS011;63123;50.906;4.198;2023-02-28T16:10:06;1.60;;;1.50;;
74616;SDS011;63123;50.906;4.198;2023-02-28T16:12:35;1.40;;;1.30;;
74616;SDS011;63123;50.906;4.198;2023-02-28T16:15:05;1.63;;;1.52;;
74616;SDS011;63123;50.906;4.198;2023-02-28T16:17:33;1.75;;;1.50;;
74616;SDS011;63123;50.906;4.198;2023-02-28T16:20:05;2.28;;;1.73;;
74616;SDS011;63123;50.906;4.198;2023-02-28T16:22:58;2.60;;;2.40;;
74616;SDS011;63123;50.906;4.198;2023-02-28T16:25:33;2.20;;;2.00;;
74616;SDS011;63123;50.906;4.198;2023-02-28T16:28:01;1.50;;;1.40;;
74616;SDS011;63123;50.906;4.198;2023-02-28T16:30:28;1.50;;;1.30;;
74616;SDS011;63123;50.906;4.198;2023-02-28T16:32:57;2.00;;;1.58;;
74616;SDS011;63123;50.906;4.198;2023-02-28T16:35:24;2.45;;;1.75;;
74616;SDS011;63123;50.906;4.198;2023-02-28T16:37:53;1.58;;;1.48;;
74616;SDS011;63123;50.906;4.198;2023-02-28T16:40:20;1.70;;;1.60;;
74616;SDS011;63123;50.906;4.198;2023-02-28T16:42:51;1.80;;;1.70;;
74616;SDS011;63123;50.906;4.198;2023-02-28T16:45:23;1.70;;;1.60;;
74616;SDS011;63123;50.906;4.198;2023-02-28T16:47:51;1.52;;;1.38;;
74616;SDS011;63123;50.906;4.198;2023-02-28T16:50:18;1.90;;;1.52;;
74616;SDS011;63123;50.906;4.198;2023-02-28T16:52:45;1.73;;;1.42;;